Time;durP1;ratioP1;P1;durP2;ratioP2;P2;SDS_P1;SDS_P2;PMS_P1;PMS_P2;Temp;Humidity;BMP_temperature;BMP_pressure;BME280_temperature;BME280_humidity;BME280_pressure;Samples;Min_cycle;Max_cycle;Signal;HPM_P1;HPM_P2
2021/06/29 00:00:48;;;;;;;9.30;8.60;;;26.10;59.00;;;;;;5075022;28;20462;-68
2021/06/29 00:03:16;;;;;;;12.70;11.60;;;26.10;59.10;;;;;;5074633;28;20823;-68
2021/06/29 00:05:46;;;;;;;8.90;8.30;;;26.00;59.20;;;;;;5075344;28;20557;-68
2021/06/29 00:08:13;;;;;;;8.60;7.90;;;26.00;59.20;;;;;;5074566;28;20475;-68
2021/06/29 00:10:40;;;;;;;10.17;9.30;;;26.00;59.40;;;;;;5075059;28;20467;-67
2021/06/29 00:13:09;;;;;;;13.07;11.00;;;26.00;59.60;;;;;;5074393;28;20481;-67
2021/06/29 00:15:36;;;;;;;10.63;9.70;;;26.00;59.80;;;;;;5074990;28;20466;-68
2021/06/29 00:18:04;;;;;;;12.40;11.30;;;25.90;59.60;;;;;;5074284;28;20968;-70
2021/06/29 00:20:31;;;;;;;10.93;9.97;;;25.90;59.50;;;;;;5067829;28;20469;-69
2021/06/29 00:22:58;;;;;;;8.70;8.10;;;25.90;59.50;;;;;;5061776;28;20471;-67
2021/06/29 00:25:25;;;;;;;9.67;8.87;;;25.90;59.60;;;;;;5074332;28;20474;-68
2021/06/29 00:27:52;;;;;;;11.00;10.10;;;25.90;59.60;;;;;;5074804;28;20474;-69
2021/06/29 00:30:21;;;;;;;8.70;8.10;;;25.90;59.60;;;;;;5073973;28;20851;-70
2021/06/29 00:32:48;;;;;;;9.00;8.30;;;25.80;59.50;;;;;;5074781;28;20485;-69
2021/06/29 00:35:15;;;;;;;7.70;7.20;;;25.80;59.50;;;;;;5074044;28;20481;-71
2021/06/29 00:37:43;;;;;;;12.87;11.50;;;25.80;59.60;;;;;;5074542;28;20474;-69
2021/06/29 00:40:12;;;;;;;9.23;8.50;;;25.80;59.60;;;;;;5074039;28;20991;-69
2021/06/29 00:42:39;;;;;;;16.17;14.57;;;25.80;59.70;;;;;;5070864;28;20513;-70
2021/06/29 00:45:08;;;;;;;12.70;11.50;;;25.70;59.70;;;;;;5074434;28;20485;-68
2021/06/29 00:47:36;;;;;;;11.80;10.80;;;25.70;59.80;;;;;;5074123;28;21211;-69
2021/06/29 00:50:05;;;;;;;12.83;11.73;;;25.70;59.90;;;;;;5071894;28;20474;-69
2021/06/29 00:52:32;;;;;;;12.27;11.07;;;25.70;59.90;;;;;;5073947;28;20466;-69
2021/06/29 00:54:59;;;;;;;11.87;10.90;;;25.70;59.90;;;;;;5074441;28;20482;-70
2021/06/29 00:57:26;;;;;;;14.83;13.53;;;25.70;60.00;;;;;;5073850;28;20470;-69
2021/06/29 00:59:53;;;;;;;12.80;11.80;;;25.70;60.00;;;;;;5074071;28;20482;-69
2021/06/29 01:02:20;;;;;;;16.27;14.87;;;25.70;60.20;;;;;;5072754;28;21117;-69
2021/06/29 01:04:48;;;;;;;14.47;13.17;;;25.70;60.30;;;;;;5072097;28;20470;-70
2021/06/29 01:07:15;;;;;;;22.97;20.23;;;25.70;60.50;;;;;;5073577;28;20466;-69
2021/06/29 01:09:44;;;;;;;17.00;15.50;;;25.60;60.60;;;;;;5073743;28;20471;-69
2021/06/29 01:12:11;;;;;;;13.90;12.60;;;25.60;60.70;;;;;;5073935;28;20805;-67
2021/06/29 01:14:38;;;;;;;12.03;11.03;;;25.60;60.90;;;;;;5073638;28;21279;-67
2021/06/29 01:17:07;;;;;;;15.07;13.70;;;25.60;61.20;;;;;;5073813;28;20462;-67
2021/06/29 01:19:38;;;;;;;11.53;10.63;;;25.60;61.30;;;;;;5072820;28;20459;-67
2021/06/29 01:22:08;;;;;;;9.90;9.10;;;25.60;61.30;;;;;;5073860;28;20539;-68
2021/06/29 01:24:36;;;;;;;16.40;15.00;;;25.60;61.50;;;;;;5060440;28;20462;-67
2021/06/29 01:27:17;;;;;;;15.80;14.50;;;25.60;61.70;;;;;;5069343;28;20473;-68
2021/06/29 01:29:52;;;;;;;16.60;15.10;;;25.60;61.90;;;;;;5073344;28;20537;-68
2021/06/29 01:32:18;;;;;;;17.47;15.80;;;25.50;61.90;;;;;;5073503;28;20976;-68
2021/06/29 01:34:46;;;;;;;11.37;10.40;;;25.50;62.10;;;;;;5073288;28;20524;-67
2021/06/29 01:37:16;;;;;;;13.10;12.10;;;25.50;62.30;;;;;;5071531;28;20470;-68
2021/06/29 01:39:52;;;;;;;17.57;16.07;;;25.40;62.40;;;;;;5063278;28;20579;-68
2021/06/29 01:42:19;;;;;;;12.77;11.77;;;25.50;62.60;;;;;;5068740;28;20466;-67
2021/06/29 01:44:46;;;;;;;11.40;10.50;;;25.40;62.70;;;;;;5072980;28;20466;-68
2021/06/29 01:47:23;;;;;;;9.53;8.90;;;25.40;63.00;;;;;;5072975;28;20466;-68
2021/06/29 01:49:50;;;;;;;9.07;8.47;;;25.40;63.30;;;;;;5068252;28;20553;-68
2021/06/29 01:52:18;;;;;;;10.03;9.20;;;25.40;64.50;;;;;;5073157;28;20805;-69
2021/06/29 01:54:45;;;;;;;16.00;14.60;;;25.40;63.80;;;;;;5072761;28;23230;-68
2021/06/29 01:57:15;;;;;;;17.80;16.20;;;25.40;63.80;;;;;;5073012;28;20462;-68
2021/06/29 01:59:45;;;;;;;12.20;11.20;;;25.30;64.00;;;;;;5072424;28;20459;-68
2021/06/29 02:02:12;;;;;;;14.63;13.53;;;25.30;64.70;;;;;;5072624;28;20470;-68
2021/06/29 02:04:39;;;;;;;13.57;12.37;;;25.30;64.00;;;;;;5071642;28;20520;-68
2021/06/29 02:07:05;;;;;;;10.73;10.00;;;25.30;64.10;;;;;;5071642;28;20470;-68
2021/06/29 02:09:34;;;;;;;10.47;9.67;;;25.30;64.40;;;;;;5071489;28;20466;-68
2021/06/29 02:12:01;;;;;;;8.87;8.27;;;25.30;64.50;;;;;;5073078;28;20489;-68
2021/06/29 02:14:28;;;;;;;10.27;9.57;;;25.30;64.80;;;;;;5072525;28;20987;-68
2021/06/29 02:16:55;;;;;;;9.27;8.67;;;25.30;64.80;;;;;;5072631;28;20466;-68
2021/06/29 02:19:22;;;;;;;9.77;9.07;;;25.20;65.10;;;;;;5071204;28;20481;-69
2021/06/29 02:21:49;;;;;;;8.93;8.23;;;25.20;65.30;;;;;;5070907;28;20496;-68
2021/06/29 02:24:16;;;;;;;9.20;8.60;;;25.20;65.40;;;;;;5070974;28;20466;-68
2021/06/29 02:26:44;;;;;;;7.10;6.63;;;25.20;65.70;;;;;;5070568;28;21170;-68
2021/06/29 02:29:11;;;;;;;7.53;7.03;;;25.20;66.00;;;;;;5071324;28;20804;-68
2021/06/29 02:31:38;;;;;;;9.23;8.63;;;25.20;66.30;;;;;;5071372;28;20785;-68
2021/06/29 02:34:05;;;;;;;10.60;9.70;;;25.20;66.30;;;;;;5072925;28;20466;-68
2021/06/29 02:36:33;;;;;;;9.47;8.77;;;25.10;66.40;;;;;;5072435;28;20836;-68
2021/06/29 02:39:00;;;;;;;9.43;8.67;;;25.20;66.40;;;;;;5072486;28;20944;-68
2021/06/29 02:41:27;;;;;;;9.37;8.70;;;25.10;66.30;;;;;;5072772;28;20470;-68
2021/06/29 02:43:55;;;;;;;10.07;9.37;;;25.10;66.50;;;;;;5072201;28;20450;-69
2021/06/29 02:46:22;;;;;;;15.70;14.30;;;25.10;66.60;;;;;;5072705;28;20492;-68
2021/06/29 02:48:49;;;;;;;11.50;10.60;;;25.10;66.70;;;;;;5072234;28;21345;-68
2021/06/29 02:51:16;;;;;;;12.53;11.53;;;25.10;66.90;;;;;;5072417;28;20964;-69
2021/06/29 02:53:43;;;;;;;10.23;9.47;;;25.10;67.00;;;;;;5072320;28;20479;-68
2021/06/29 02:56:37;;;;;;;12.50;11.40;;;25.10;67.10;;;;;;5072600;28;20474;-68
2021/06/29 02:58:59;;;;;;;10.57;9.67;;;25.10;67.30;;;;;;5072155;28;20464;-68
2021/06/29 03:01:25;;;;;;;11.10;10.30;;;25.10;67.30;;;;;;5072577;28;20548;-68
2021/06/29 03:03:52;;;;;;;9.63;8.83;;;25.00;67.30;;;;;;5072017;28;20480;-68
2021/06/29 03:06:19;;;;;;;12.30;11.20;;;25.00;67.50;;;;;;5072511;28;20466;-68
2021/06/29 03:08:46;;;;;;;10.77;9.97;;;25.00;67.60;;;;;;5072190;28;20969;-68
2021/06/29 03:11:14;;;;;;;11.17;10.17;;;25.00;67.90;;;;;;5072207;28;20462;-68
2021/06/29 03:13:40;;;;;;;10.60;9.80;;;25.00;67.80;;;;;;5072001;28;20502;-68
2021/06/29 03:16:11;;;;;;;10.00;9.23;;;25.00;67.90;;;;;;5072465;28;20458;-69
2021/06/29 03:18:38;;;;;;;11.10;10.27;;;25.00;68.00;;;;;;5072017;28;20498;-68
2021/06/29 03:21:06;;;;;;;10.70;9.90;;;25.00;68.10;;;;;;5072324;28;20466;-68
2021/06/29 03:23:39;;;;;;;10.13;9.33;;;25.00;68.30;;;;;;5072212;28;20542;-68
2021/06/29 03:26:06;;;;;;;11.47;10.63;;;25.00;68.30;;;;;;5073579;28;20458;-68
2021/06/29 03:28:33;;;;;;;11.50;10.60;;;25.00;68.40;;;;;;5075931;28;20481;-68
2021/06/29 03:31:01;;;;;;;10.90;10.10;;;25.00;68.60;;;;;;5075881;28;20975;-68
2021/06/29 03:33:29;;;;;;;9.90;9.20;;;25.00;68.70;;;;;;5076211;28;20477;-68
2021/06/29 03:35:56;;;;;;;10.33;9.63;;;25.00;68.90;;;;;;5075704;28;20470;-68
2021/06/29 03:38:23;;;;;;;10.13;9.40;;;25.00;69.00;;;;;;5076032;28;20469;-68
2021/06/29 03:40:50;;;;;;;10.63;9.53;;;25.00;69.20;;;;;;5075589;28;20847;-68
2021/06/29 03:43:20;;;;;;;9.27;8.50;;;25.00;69.30;;;;;;5075742;28;20457;-68
2021/06/29 03:45:47;;;;;;;9.90;9.27;;;25.00;69.40;;;;;;5075470;28;20489;-68
2021/06/29 03:48:14;;;;;;;10.40;9.60;;;25.00;69.50;;;;;;5075882;28;20972;-68
2021/06/29 03:50:43;;;;;;;11.27;10.37;;;25.00;69.50;;;;;;5075833;28;20473;-68
2021/06/29 03:53:10;;;;;;;10.17;9.37;;;25.00;69.50;;;;;;5075594;28;21178;-68
2021/06/29 03:55:37;;;;;;;10.77;9.90;;;25.00;69.70;;;;;;5075756;28;20480;-68
2021/06/29 03:58:04;;;;;;;11.63;10.67;;;25.00;69.70;;;;;;5075155;28;20820;-68
2021/06/29 04:00:31;;;;;;;10.20;9.43;;;25.00;69.80;;;;;;5075642;28;20466;-68
2021/06/29 04:02:58;;;;;;;10.07;9.27;;;25.10;69.90;;;;;;5075002;28;20469;-68
2021/06/29 04:05:25;;;;;;;11.07;10.17;;;25.00;70.00;;;;;;5075530;28;20458;-68
2021/06/29 04:07:53;;;;;;;10.87;10.03;;;25.00;70.20;;;;;;5075134;28;20462;-68
2021/06/29 04:10:20;;;;;;;10.57;9.80;;;25.00;70.20;;;;;;5075767;28;20461;-68
2021/06/29 04:12:47;;;;;;;11.63;10.63;;;25.10;70.30;;;;;;5074904;28;20474;-68
2021/06/29 04:15:15;;;;;;;9.80;9.10;;;25.10;70.30;;;;;;5075350;28;20462;-66
2021/06/29 04:17:42;;;;;;;11.03;10.20;;;25.10;70.40;;;;;;5075340;28;20466;-68
2021/06/29 04:20:10;;;;;;;11.07;10.17;;;25.10;70.50;;;;;;5074888;28;20465;-68
2021/06/29 04:22:37;;;;;;;10.50;9.70;;;25.10;70.60;;;;;;5075150;28;20474;-69
2021/06/29 04:25:07;;;;;;;11.83;10.73;;;25.10;70.70;;;;;;5074978;28;20863;-68
2021/06/29 04:27:34;;;;;;;14.37;13.07;;;25.10;70.70;;;;;;5075061;28;20798;-67
2021/06/29 04:30:01;;;;;;;10.67;9.67;;;25.10;70.70;;;;;;5074716;28;20482;-67
2021/06/29 04:32:28;;;;;;;10.90;10.17;;;25.20;70.90;;;;;;5075269;28;20960;-67
2021/06/29 04:34:55;;;;;;;10.37;9.60;;;25.20;71.10;;;;;;5074511;28;20462;-67
2021/06/29 04:37:22;;;;;;;11.20;10.40;;;25.20;71.10;;;;;;5073616;28;20524;-68
2021/06/29 04:39:49;;;;;;;10.47;9.63;;;25.20;71.00;;;;;;5074450;28;20477;-66
2021/06/29 04:42:18;;;;;;;10.70;9.97;;;25.20;71.20;;;;;;5074836;28;20804;-67
2021/06/29 04:44:45;;;;;;;10.23;9.43;;;25.20;71.20;;;;;;5074877;28;20463;-67
2021/06/29 04:47:11;;;;;;;11.40;10.60;;;25.20;71.20;;;;;;5074209;28;20462;-67
2021/06/29 04:49:38;;;;;;;10.37;9.50;;;25.30;71.40;;;;;;5074673;28;20469;-67
2021/06/29 04:52:06;;;;;;;10.47;9.67;;;25.30;71.50;;;;;;5074395;28;20474;-67
2021/06/29 04:54:33;;;;;;;11.93;10.93;;;25.30;71.50;;;;;;5074718;28;20474;-67
2021/06/29 04:57:00;;;;;;;10.30;9.50;;;25.30;71.50;;;;;;5074136;28;20463;-67
2021/06/29 04:59:28;;;;;;;10.30;9.47;;;25.30;71.50;;;;;;5074528;28;20469;-67
2021/06/29 05:01:55;;;;;;;10.20;9.30;;;25.40;71.70;;;;;;5074116;28;20485;-67
2021/06/29 05:04:22;;;;;;;9.70;9.10;;;25.40;71.70;;;;;;5074136;28;20474;-67
2021/06/29 05:06:49;;;;;;;10.43;9.63;;;25.50;71.80;;;;;;5074555;28;20463;-67
2021/06/29 05:09:16;;;;;;;9.77;9.00;;;25.50;71.70;;;;;;5073843;28;20466;-68
2021/06/29 05:11:42;;;;;;;10.17;9.47;;;25.50;71.70;;;;;;5074107;28;20486;-67
2021/06/29 05:14:09;;;;;;;9.97;9.27;;;25.60;71.70;;;;;;5073947;28;21139;-67
2021/06/29 05:16:38;;;;;;;10.10;9.40;;;25.60;71.70;;;;;;5074037;28;20467;-67
2021/06/29 05:19:06;;;;;;;9.80;9.10;;;25.70;71.70;;;;;;5073630;28;21137;-67
2021/06/29 05:21:33;;;;;;;10.10;9.40;;;25.70;71.70;;;;;;5074058;28;20473;-67
2021/06/29 05:23:59;;;;;;;10.60;9.80;;;25.70;71.70;;;;;;5073508;28;20812;-67
2021/06/29 05:26:26;;;;;;;10.30;9.60;;;25.80;71.70;;;;;;5074066;28;20462;-67
2021/06/29 05:28:53;;;;;;;10.20;9.40;;;25.80;72.00;;;;;;5073456;28;20543;-67
2021/06/29 05:31:20;;;;;;;12.40;10.20;;;25.90;72.00;;;;;;5073907;28;20473;-67
2021/06/29 05:33:48;;;;;;;11.47;10.43;;;25.90;71.50;;;;;;5074007;28;20466;-67
2021/06/29 05:36:15;;;;;;;10.10;9.40;;;26.00;71.30;;;;;;5073429;28;20470;-67
2021/06/29 05:38:42;;;;;;;10.43;9.63;;;26.00;71.40;;;;;;5073752;28;20477;-67
2021/06/29 05:41:09;;;;;;;10.00;9.30;;;26.00;71.50;;;;;;5073237;28;20466;-67
2021/06/29 05:43:36;;;;;;;10.40;9.70;;;26.10;71.40;;;;;;5073558;28;20540;-67
2021/06/29 05:46:03;;;;;;;10.27;9.47;;;26.20;72.00;;;;;;5073081;28;20463;-68
2021/06/29 05:48:33;;;;;;;9.70;9.07;;;26.20;72.30;;;;;;5073264;28;20478;-68
2021/06/29 05:51:01;;;;;;;9.60;8.90;;;26.30;72.70;;;;;;5073105;28;20466;-67
2021/06/29 05:53:29;;;;;;;10.97;9.97;;;26.30;73.20;;;;;;5073618;28;20936;-68
2021/06/29 05:56:00;;;;;;;10.87;9.97;;;26.30;73.60;;;;;;5073180;28;20490;-68
2021/06/29 05:58:27;;;;;;;10.40;9.70;;;26.30;73.50;;;;;;5073581;28;20822;-68
2021/06/29 06:00:55;;;;;;;10.63;9.63;;;26.30;73.40;;;;;;5073230;28;20471;-68
2021/06/29 06:03:21;;;;;;;11.47;10.57;;;26.30;73.60;;;;;;5072856;28;20454;-68
2021/06/29 06:05:48;;;;;;;10.70;9.80;;;26.30;73.40;;;;;;5073128;28;20498;-68
2021/06/29 06:08:17;;;;;;;9.77;9.17;;;26.30;73.50;;;;;;5072611;28;20466;-68
2021/06/29 06:10:44;;;;;;;9.40;8.80;;;26.40;73.80;;;;;;5073272;28;20458;-67
2021/06/29 06:13:11;;;;;;;12.03;11.13;;;26.40;73.90;;;;;;5072370;28;20489;-68
2021/06/29 06:15:38;;;;;;;10.80;9.73;;;26.40;74.10;;;;;;5073072;28;20470;-67
2021/06/29 06:18:06;;;;;;;12.90;11.80;;;26.50;74.10;;;;;;5072549;28;20474;-68
2021/06/29 06:20:34;;;;;;;10.80;9.93;;;26.60;74.00;;;;;;5073210;28;20464;-68
2021/06/29 06:23:02;;;;;;;12.17;11.07;;;26.70;74.20;;;;;;5072506;28;20469;-68
2021/06/29 06:25:30;;;;;;;10.43;9.63;;;26.90;74.30;;;;;;5072970;28;20964;-69
2021/06/29 06:27:57;;;;;;;11.70;10.77;;;27.00;74.30;;;;;;5072814;28;20478;-68
2021/06/29 06:30:24;;;;;;;11.43;10.63;;;27.20;74.20;;;;;;5072678;28;20470;-68
2021/06/29 06:32:51;;;;;;;11.33;10.50;;;27.30;74.10;;;;;;5072763;28;20466;-68
2021/06/29 06:35:18;;;;;;;11.43;10.53;;;27.40;74.00;;;;;;5072160;28;21002;-67
2021/06/29 06:37:45;;;;;;;13.13;12.03;;;27.60;73.60;;;;;;5072881;28;20462;-68
2021/06/29 06:40:14;;;;;;;13.50;12.20;;;27.70;72.80;;;;;;5072418;28;20778;-67
2021/06/29 06:42:42;;;;;;;12.53;11.53;;;27.90;73.20;;;;;;5072728;28;20467;-67
2021/06/29 06:45:14;;;;;;;12.20;11.20;;;28.00;73.00;;;;;;5072191;28;20467;-67
2021/06/29 06:47:41;;;;;;;12.37;11.37;;;28.10;72.70;;;;;;5072635;28;20466;-67
2021/06/29 06:50:09;;;;;;;11.10;10.17;;;28.10;72.50;;;;;;5072359;28;20844;-67
2021/06/29 06:52:37;;;;;;;12.87;11.77;;;28.30;72.60;;;;;;5072559;28;20478;-66
2021/06/29 06:55:04;;;;;;;14.43;11.60;;;28.40;72.70;;;;;;5072226;28;20461;-69
2021/06/29 06:57:31;;;;;;;18.43;13.53;;;28.50;72.20;;;;;;5072448;28;20987;-69
2021/06/29 06:59:59;;;;;;;13.20;12.03;;;28.50;71.80;;;;;;5072763;28;20848;-69
2021/06/29 07:02:27;;;;;;;12.77;11.67;;;28.60;71.90;;;;;;5075967;28;20462;-68
2021/06/29 07:04:54;;;;;;;12.67;11.67;;;28.60;71.80;;;;;;5076417;28;20972;-68
2021/06/29 07:07:21;;;;;;;13.70;12.57;;;28.70;71.70;;;;;;5076287;28;20457;-67
2021/06/29 07:09:48;;;;;;;15.50;13.90;;;28.70;71.80;;;;;;5076651;28;20477;-67
2021/06/29 07:12:15;;;;;;;12.80;11.50;;;28.80;72.00;;;;;;5076008;28;20482;-69
2021/06/29 07:14:49;;;;;;;13.17;11.90;;;28.90;71.50;;;;;;5076704;28;20488;-68
2021/06/29 07:17:17;;;;;;;14.80;13.37;;;29.00;71.00;;;;;;5076005;28;20491;-67
2021/06/29 07:19:44;;;;;;;12.93;11.93;;;29.20;70.80;;;;;;5076465;28;20479;-67
2021/06/29 07:22:11;;;;;;;13.13;12.10;;;29.40;70.30;;;;;;5075954;28;20470;-67
2021/06/29 07:24:38;;;;;;;12.47;11.47;;;29.50;69.30;;;;;;5076330;28;20463;-68
2021/06/29 07:27:06;;;;;;;12.40;11.43;;;29.60;68.90;;;;;;5075917;28;20533;-67
2021/06/29 07:29:33;;;;;;;12.50;11.60;;;29.70;68.60;;;;;;5076336;28;20466;-68
2021/06/29 07:32:01;;;;;;;13.00;12.10;;;29.80;68.70;;;;;;5076116;28;20473;-67
2021/06/29 07:34:29;;;;;;;11.93;11.03;;;29.90;68.30;;;;;;5075577;28;20951;-67
2021/06/29 07:36:56;;;;;;;12.70;11.80;;;29.90;67.60;;;;;;5076068;28;20473;-68
2021/06/29 07:39:23;;;;;;;12.90;11.90;;;30.00;67.40;;;;;;5075598;28;20789;-68
2021/06/29 07:41:50;;;;;;;11.20;10.40;;;30.10;67.10;;;;;;5076106;28;20982;-68
2021/06/29 07:44:17;;;;;;;12.60;11.60;;;30.20;66.90;;;;;;5075556;28;20474;-69
2021/06/29 07:46:44;;;;;;;12.63;11.40;;;30.30;66.30;;;;;;5075869;28;20470;-69
2021/06/29 07:49:11;;;;;;;12.63;11.67;;;30.30;66.30;;;;;;5075261;28;20466;-68
2021/06/29 07:51:39;;;;;;;11.60;10.50;;;30.30;66.50;;;;;;5075703;28;20484;-69
2021/06/29 07:54:06;;;;;;;11.90;11.10;;;30.30;65.80;;;;;;5075378;28;20469;-69
2021/06/29 07:56:37;;;;;;;11.87;10.97;;;30.30;66.10;;;;;;5075768;28;20800;-68
2021/06/29 07:59:05;;;;;;;12.03;11.03;;;30.20;66.20;;;;;;5075665;28;20477;-68
2021/06/29 08:01:32;;;;;;;12.00;11.00;;;30.20;66.40;;;;;;5075176;28;20478;-68
2021/06/29 08:03:59;;;;;;;13.93;12.83;;;30.20;66.50;;;;;;5075430;28;20826;-68
2021/06/29 08:06:26;;;;;;;12.73;11.77;;;30.20;66.10;;;;;;5075204;28;20466;-68
2021/06/29 08:08:54;;;;;;;13.80;12.80;;;30.20;65.90;;;;;;5075649;28;20500;-68
2021/06/29 08:11:21;;;;;;;12.10;11.17;;;30.30;66.40;;;;;;5074479;28;20478;-68
2021/06/29 08:13:48;;;;;;;12.30;11.50;;;30.30;66.00;;;;;;5075435;28;20481;-68
2021/06/29 08:16:15;;;;;;;11.33;10.53;;;30.30;65.70;;;;;;5074946;28;20467;-68
2021/06/29 08:18:42;;;;;;;12.43;11.47;;;30.40;65.30;;;;;;5075171;28;20466;-69
2021/06/29 08:21:09;;;;;;;10.90;10.10;;;30.40;64.90;;;;;;5074659;28;20466;-68
2021/06/29 08:23:37;;;;;;;11.20;10.40;;;30.40;64.90;;;;;;5075274;28;20960;-68
2021/06/29 08:26:06;;;;;;;10.93;9.87;;;30.40;63.60;;;;;;5075234;28;20466;-69
2021/06/29 08:28:34;;;;;;;12.37;11.40;;;30.40;63.60;;;;;;5074680;28;20458;-69
2021/06/29 08:31:01;;;;;;;15.43;14.13;;;30.40;63.40;;;;;;5075022;28;20467;-68
2021/06/29 08:33:28;;;;;;;11.37;10.47;;;30.40;65.00;;;;;;5074833;28;20481;-68
2021/06/29 08:35:56;;;;;;;12.00;10.80;;;30.50;64.30;;;;;;5075016;28;20462;-68
2021/06/29 08:38:24;;;;;;;10.23;9.43;;;30.50;63.50;;;;;;5074413;28;20974;-68
2021/06/29 08:40:51;;;;;;;10.20;9.40;;;30.60;62.60;;;;;;5075074;28;20467;-68
2021/06/29 08:43:20;;;;;;;10.03;9.30;;;30.50;61.90;;;;;;5074394;28;20807;-68
2021/06/29 08:45:48;;;;;;;11.53;10.63;;;30.50;61.90;;;;;;5074679;28;20466;-68
2021/06/29 08:48:15;;;;;;;10.83;9.90;;;30.40;61.50;;;;;;5072494;28;20478;-69
2021/06/29 08:50:43;;;;;;;12.97;11.93;;;30.40;61.50;;;;;;5074181;28;20951;-69
2021/06/29 08:53:13;;;;;;;12.00;11.20;;;30.40;61.90;;;;;;5073714;28;20462;-68
2021/06/29 08:55:43;;;;;;;9.83;9.00;;;30.40;61.60;;;;;;5073705;28;20463;-68
2021/06/29 08:58:11;;;;;;;9.80;9.10;;;30.40;62.20;;;;;;5073635;28;20473;-68
2021/06/29 09:00:39;;;;;;;12.30;11.40;;;30.50;61.10;;;;;;5073572;28;20462;-68
2021/06/29 09:03:07;;;;;;;58.83;18.60;;;30.50;61.80;;;;;;5074236;28;20485;-68
2021/06/29 09:05:34;;;;;;;40.93;15.97;;;30.50;61.50;;;;;;5072439;28;20477;-68
2021/06/29 09:08:04;;;;;;;19.83;10.73;;;30.50;61.10;;;;;;5073001;28;20812;-68
2021/06/29 09:10:32;;;;;;;11.20;10.10;;;30.50;61.20;;;;;;5073697;28;20470;-69
2021/06/29 09:12:59;;;;;;;10.07;9.17;;;30.60;61.10;;;;;;5074111;28;20807;-68
2021/06/29 09:15:40;;;;;;;10.67;9.67;;;30.60;61.00;;;;;;5073703;28;20496;-69
2021/06/29 09:18:23;;;;;;;10.60;9.70;;;30.60;61.30;;;;;;5074011;28;20859;-68
2021/06/29 09:20:53;;;;;;;10.37;9.53;;;30.60;61.60;;;;;;5073923;28;20454;-69
2021/06/29 09:23:22;;;;;;;10.23;8.67;;;30.60;61.20;;;;;;5073366;28;20971;-69
2021/06/29 09:25:53;;;;;;;9.40;8.60;;;30.60;61.10;;;;;;5073468;28;20816;-68
2021/06/29 09:28:22;;;;;;;9.47;8.63;;;30.60;60.40;;;;;;5073826;28;20474;-69
2021/06/29 09:30:52;;;;;;;11.53;10.20;;;30.60;60.40;;;;;;5073579;28;20998;-68
2021/06/29 09:33:22;;;;;;;17.27;15.77;;;30.60;60.20;;;;;;5073622;28;20474;-68
2021/06/29 09:35:51;;;;;;;14.70;13.50;;;30.60;60.80;;;;;;5073367;28;20466;-68
2021/06/29 09:38:22;;;;;;;10.60;9.70;;;30.60;62.00;;;;;;5073944;28;20474;-68
2021/06/29 09:40:58;;;;;;;17.23;9.83;;;30.60;60.30;;;;;;5073622;28;20469;-68
2021/06/29 09:43:27;;;;;;;9.13;8.23;;;30.60;60.30;;;;;;5073699;28;20975;-67
2021/06/29 09:45:58;;;;;;;9.37;8.67;;;30.50;60.30;;;;;;5073191;28;20455;-67
2021/06/29 09:48:34;;;;;;;9.40;8.70;;;30.50;60.30;;;;;;5073701;28;20473;-67
2021/06/29 09:51:06;;;;;;;9.50;8.80;;;30.50;60.60;;;;;;5073307;28;20496;-67
2021/06/29 09:53:37;;;;;;;9.73;8.93;;;30.40;60.60;;;;;;5073559;28;20497;-67
2021/06/29 09:56:06;;;;;;;9.20;8.60;;;30.40;60.90;;;;;;5073158;28;21196;-67
2021/06/29 09:58:34;;;;;;;10.07;9.37;;;30.40;61.60;;;;;;5073441;28;20513;-67
2021/06/29 10:01:03;;;;;;;9.70;8.90;;;30.40;61.80;;;;;;5072901;28;20470;-67
2021/06/29 10:03:33;;;;;;;9.97;9.27;;;30.30;61.00;;;;;;5073321;28;20470;-67
2021/06/29 10:06:02;;;;;;;8.97;8.47;;;30.30;61.00;;;;;;5072818;28;20964;-67
2021/06/29 10:08:34;;;;;;;9.33;8.53;;;30.20;60.90;;;;;;5073273;28;20862;-67
2021/06/29 10:11:13;;;;;;;8.40;7.90;;;30.20;61.00;;;;;;5072730;28;20466;-67
2021/06/29 10:13:42;;;;;;;8.77;8.27;;;30.20;60.20;;;;;;5073221;28;20454;-67
2021/06/29 10:16:11;;;;;;;10.70;9.90;;;30.20;59.80;;;;;;5073121;28;21722;-67
2021/06/29 10:18:43;;;;;;;15.10;13.90;;;30.20;59.90;;;;;;5072912;28;20477;-67
2021/06/29 10:21:22;;;;;;;13.73;12.73;;;30.20;61.30;;;;;;5072798;28;21211;-67
2021/06/29 10:23:51;;;;;;;12.80;11.83;;;30.20;60.70;;;;;;5072600;28;20508;-67
2021/06/29 10:26:20;;;;;;;14.70;13.60;;;30.30;60.50;;;;;;5073090;28;20536;-67
2021/06/29 10:28:48;;;;;;;12.27;11.27;;;30.30;60.40;;;;;;5072655;28;20466;-67
2021/06/29 10:31:19;;;;;;;13.50;12.50;;;30.40;60.40;;;;;;5073040;28;20465;-67
2021/06/29 10:33:47;;;;;;;12.87;11.77;;;30.40;59.90;;;;;;5072987;28;20564;-65
2021/06/29 10:36:15;;;;;;;11.27;10.10;;;30.40;60.00;;;;;;5072616;28;20459;-65
2021/06/29 10:38:42;;;;;;;10.50;9.67;;;30.40;60.10;;;;;;5072977;28;20952;-66
2021/06/29 10:41:09;;;;;;;9.80;9.13;;;30.50;59.30;;;;;;5072521;28;20458;-66
2021/06/29 10:43:38;;;;;;;11.27;10.37;;;30.50;59.30;;;;;;5072899;28;20462;-66
2021/06/29 10:46:05;;;;;;;10.27;9.57;;;30.50;59.20;;;;;;5072367;28;20462;-66
2021/06/29 10:48:34;;;;;;;10.33;9.53;;;30.60;59.30;;;;;;5072713;28;20539;-66
2021/06/29 10:51:03;;;;;;;12.33;11.43;;;30.50;59.20;;;;;;5072328;28;20458;-66
2021/06/29 10:53:45;;;;;;;12.73;11.83;;;30.50;59.60;;;;;;5072595;28;20494;-65
2021/06/29 10:56:16;;;;;;;11.73;10.93;;;30.50;59.40;;;;;;5072284;28;20455;-66
2021/06/29 10:58:46;;;;;;;11.50;10.60;;;30.50;59.30;;;;;;5072735;28;20470;-66
2021/06/29 11:01:31;;;;;;;11.13;10.03;;;30.40;59.70;;;;;;5072102;28;20485;-66
2021/06/29 11:04:02;;;;;;;10.97;10.17;;;30.40;60.10;;;;;;5072251;28;20473;-66
2021/06/29 11:06:34;;;;;;;10.60;9.80;;;30.30;59.90;;;;;;5061452;28;20463;-66
2021/06/29 11:09:02;;;;;;;11.57;10.70;;;30.20;59.80;;;;;;5071625;28;20481;-66
2021/06/29 11:11:31;;;;;;;11.80;10.93;;;30.20;59.60;;;;;;5072338;28;20463;-66
2021/06/29 11:13:59;;;;;;;11.97;11.17;;;30.10;59.90;;;;;;5072011;28;20470;-66
2021/06/29 11:16:53;;;;;;;12.30;11.40;;;30.00;60.20;;;;;;5072540;28;20466;-66
2021/06/29 11:19:22;;;;;;;11.33;10.43;;;29.90;60.90;;;;;;5071881;28;20967;-66
2021/06/29 11:21:49;;;;;;;12.17;11.27;;;29.80;61.80;;;;;;5072460;28;20515;-65
2021/06/29 11:24:38;;;;;;;12.00;11.10;;;29.80;63.70;;;;;;5072030;28;20466;-66
2021/06/29 11:27:06;;;;;;;11.43;10.37;;;29.70;65.80;;;;;;5071976;28;20463;-65
2021/06/29 11:29:39;;;;;;;10.27;9.27;;;29.50;68.00;;;;;;5072267;28;20473;-66
2021/06/29 11:32:29;;;;;;;10.77;9.07;;;29.30;66.10;;;;;;5071938;28;20500;-66
2021/06/29 11:35:38;;;;;;;8.60;7.90;;;29.00;64.90;;;;;;5071938;28;20955;-66
2021/06/29 11:38:07;;;;;;;6.70;6.27;;;28.70;62.80;;;;;;5067079;28;20508;-66
2021/06/29 11:40:34;;;;;;;8.43;7.83;;;28.40;63.50;;;;;;5072287;28;20458;-66
2021/06/29 11:43:11;;;;;;;8.00;7.40;;;28.20;65.00;;;;;;5071938;28;20458;-66
2021/06/29 11:45:38;;;;;;;6.60;6.00;;;28.00;66.30;;;;;;5072032;28;20470;-66
2021/06/29 11:48:05;;;;;;;5.67;5.27;;;27.70;65.40;;;;;;5074383;28;20470;-66
2021/06/29 11:50:41;;;;;;;5.40;5.00;;;27.60;61.60;;;;;;5076191;28;20469;-66
2021/06/29 11:53:22;;;;;;;6.33;5.53;;;27.40;61.10;;;;;;5075458;28;20531;-65
2021/06/29 11:55:49;;;;;;;5.17;4.83;;;27.30;61.80;;;;;;5075967;28;20485;-66
2021/06/29 11:58:16;;;;;;;6.43;5.93;;;27.40;63.20;;;;;;5075094;28;20481;-66
2021/06/29 12:00:43;;;;;;;6.40;5.90;;;27.50;64.50;;;;;;5075893;28;20470;-66
2021/06/29 12:03:16;;;;;;;6.20;5.80;;;27.50;65.80;;;;;;5075257;28;20467;-66
2021/06/29 12:05:44;;;;;;;5.90;5.47;;;27.60;66.80;;;;;;5062395;28;20525;-67
2021/06/29 12:08:13;;;;;;;6.10;5.60;;;27.70;66.70;;;;;;5055163;28;20526;-66
2021/06/29 12:10:42;;;;;;;5.83;5.33;;;27.80;66.50;;;;;;5055358;28;20471;-66
2021/06/29 12:13:11;;;;;;;6.50;6.00;;;27.90;66.60;;;;;;5054741;28;20471;-66
2021/06/29 12:15:40;;;;;;;6.50;6.10;;;28.10;66.20;;;;;;5055274;28;20852;-66
2021/06/29 12:18:09;;;;;;;6.40;6.00;;;28.20;65.40;;;;;;5053215;28;20467;-66
2021/06/29 12:20:38;;;;;;;7.10;6.50;;;28.40;66.30;;;;;;5055279;28;20475;-65
2021/06/29 12:23:09;;;;;;;7.10;6.50;;;28.50;65.00;;;;;;5054803;28;20467;-65
2021/06/29 12:25:38;;;;;;;7.63;7.00;;;28.60;64.60;;;;;;5055190;28;20478;-65
2021/06/29 12:28:09;;;;;;;7.20;6.70;;;28.70;64.10;;;;;;5054745;28;20470;-65
2021/06/29 12:30:40;;;;;;;9.23;8.33;;;28.80;64.40;;;;;;5055236;28;20794;-65
2021/06/29 12:33:22;;;;;;;7.40;6.90;;;28.90;64.60;;;;;;5054530;28;20464;-66
2021/06/29 12:35:53;;;;;;;9.37;8.57;;;29.00;64.40;;;;;;5055173;28;20505;-66
2021/06/29 12:38:22;;;;;;;9.53;8.73;;;29.00;64.20;;;;;;5058804;28;20482;-66
2021/06/29 12:40:53;;;;;;;10.63;9.83;;;29.10;64.70;;;;;;5060154;28;20854;-65
2021/06/29 12:43:26;;;;;;;12.17;11.17;;;29.20;64.20;;;;;;5069026;28;20535;-65